Time;durP1;ratioP1;P1;durP2;ratioP2;P2;SDS_P1;SDS_P2;PMS_P1;PMS_P2;Temp;Humidity;BMP_temperature;BMP_pressure;BME280_temperature;BME280_humidity;BME280_pressure;Samples;Min_cycle;Max_cycle;Signal;HPM_P1;HPM_P2
2023/12/04 00:00:06;;;;;;;6.70;5.03;;;0.60;99.90;;;;;;5115295;27;20035;-70
2023/12/04 00:02:32;;;;;;;10.68;4.88;;;0.60;99.90;;;;;;5113800;27;20387;-70
2023/12/04 00:04:58;;;;;;;8.50;4.50;;;0.60;99.90;;;;;;5096075;27;20118;-74
2023/12/04 00:07:24;;;;;;;8.77;5.03;;;0.60;99.90;;;;;;5117134;27;20493;-71
2023/12/04 00:09:49;;;;;;;11.18;5.63;;;0.60;99.90;;;;;;5125100;27;20052;-71
2023/12/04 00:12:15;;;;;;;5.80;4.45;;;0.60;99.90;;;;;;5099630;28;20415;-70
2023/12/04 00:14:42;;;;;;;4.72;3.47;;;0.60;99.90;;;;;;5123394;27;20038;-70
2023/12/04 00:17:08;;;;;;;8.07;4.68;;;0.60;99.90;;;;;;5120126;27;20552;-70
2023/12/04 00:19:34;;;;;;;11.00;4.45;;;0.60;99.90;;;;;;5114356;27;20045;-70
2023/12/04 00:21:59;;;;;;;9.05;5.47;;;0.60;99.90;;;;;;5118766;27;20046;-70
2023/12/04 00:24:25;;;;;;;8.18;4.70;;;0.70;99.90;;;;;;5114690;27;20114;-70
2023/12/04 00:26:51;;;;;;;14.95;5.18;;;0.60;99.90;;;;;;5108545;27;20048;-73
2023/12/04 00:29:17;;;;;;;7.70;4.30;;;0.60;99.90;;;;;;5125367;27;20050;-71
2023/12/04 00:31:42;;;;;;;9.75;4.53;;;0.70;99.90;;;;;;5099088;27;20122;-71
2023/12/04 00:34:08;;;;;;;6.45;3.90;;;0.70;99.90;;;;;;5103362;27;20031;-71
2023/12/04 00:36:34;;;;;;;5.53;3.90;;;0.70;99.90;;;;;;5117645;27;20126;-70
2023/12/04 00:39:00;;;;;;;7.00;4.82;;;0.70;99.90;;;;;;5102716;27;20034;-70
2023/12/04 00:41:28;;;;;;;9.38;4.07;;;0.70;99.90;;;;;;5085328;27;20050;-70
2023/12/04 00:44:00;;;;;;;5.72;3.65;;;0.70;99.90;;;;;;5106677;28;20383;-69
2023/12/04 00:46:28;;;;;;;7.18;3.22;;;0.70;99.90;;;;;;5094929;27;20047;-70
2023/12/04 00:49:01;;;;;;;8.88;3.75;;;0.70;99.90;;;;;;5098221;27;20054;-70
2023/12/04 00:51:38;;;;;;;11.13;6.03;;;0.70;99.90;;;;;;5086980;27;20036;-70
2023/12/04 00:54:04;;;;;;;9.05;4.95;;;0.70;99.90;;;;;;5118328;27;20035;-71
2023/12/04 00:56:30;;;;;;;7.95;4.03;;;0.70;99.90;;;;;;5101095;27;20035;-69
2023/12/04 00:58:57;;;;;;;7.40;4.47;;;0.70;99.90;;;;;;5107222;27;20046;-70
2023/12/04 01:01:29;;;;;;;7.63;4.65;;;0.70;99.90;;;;;;5110953;27;20576;-70
2023/12/04 01:03:55;;;;;;;10.30;5.15;;;0.70;99.90;;;;;;5112267;28;20365;-70
2023/12/04 01:06:24;;;;;;;6.38;5.00;;;0.70;99.90;;;;;;5118786;28;20076;-72
2023/12/04 01:08:51;;;;;;;11.70;5.80;;;0.70;99.90;;;;;;5121016;27;20039;-70
2023/12/04 01:11:17;;;;;;;4.97;3.72;;;0.70;99.90;;;;;;5116958;27;20042;-70
2023/12/04 01:13:43;;;;;;;12.52;5.18;;;0.70;99.90;;;;;;5112578;28;20047;-72
2023/12/04 01:16:09;;;;;;;11.25;5.78;;;0.70;99.90;;;;;;5111204;27;20035;-70
2023/12/04 01:18:35;;;;;;;10.15;6.13;;;0.70;99.90;;;;;;5111475;27;20035;-70
2023/12/04 01:21:02;;;;;;;10.02;5.13;;;0.80;99.90;;;;;;5102951;28;20099;-70
2023/12/04 01:23:28;;;;;;;9.82;3.83;;;0.80;99.90;;;;;;5102032;28;20551;-69
2023/12/04 01:25:53;;;;;;;10.82;4.30;;;0.80;99.90;;;;;;5112270;28;20035;-70
2023/12/04 01:28:19;;;;;;;11.10;5.75;;;0.80;99.90;;;;;;5131254;27;20031;-70
2023/12/04 01:30:45;;;;;;;6.28;4.00;;;0.80;99.90;;;;;;5119006;27;20492;-70
2023/12/04 01:33:33;;;;;;;8.68;4.97;;;0.80;99.90;;;;;;5101026;28;20031;-71
2023/12/04 01:35:58;;;;;;;10.02;5.50;;;0.80;99.90;;;;;;5109593;28;20035;-70
2023/12/04 01:38:24;;;;;;;6.88;4.03;;;0.80;99.90;;;;;;5114511;27;20039;-69
2023/12/04 01:40:50;;;;;;;22.98;6.88;;;0.80;99.90;;;;;;5120726;27;20163;-70
2023/12/04 01:43:16;;;;;;;7.97;4.50;;;0.80;99.90;;;;;;5124204;27;20122;-69
2023/12/04 01:45:42;;;;;;;6.78;4.22;;;0.80;99.90;;;;;;5114993;28;20110;-69
2023/12/04 01:48:09;;;;;;;9.85;4.20;;;0.80;99.90;;;;;;5104606;27;20043;-71
2023/12/04 01:50:35;;;;;;;12.63;5.78;;;0.80;99.90;;;;;;5103950;27;20039;-69
2023/12/04 01:53:02;;;;;;;11.05;5.53;;;0.80;99.90;;;;;;5123538;27;20038;-69
2023/12/04 01:55:30;;;;;;;12.32;5.28;;;0.80;99.90;;;;;;5122747;27;20688;-69
2023/12/04 01:57:56;;;;;;;6.82;4.03;;;0.80;99.90;;;;;;5115068;27;20113;-69
2023/12/04 02:00:22;;;;;;;26.33;5.85;;;0.80;99.90;;;;;;5113493;27;20035;-69
2023/12/04 02:02:48;;;;;;;11.05;6.00;;;0.80;99.90;;;;;;5091633;27;20043;-69
2023/12/04 02:05:16;;;;;;;13.73;6.35;;;0.80;99.90;;;;;;5125124;27;20040;-70
2023/12/04 02:07:43;;;;;;;9.15;5.20;;;0.80;99.90;;;;;;5113100;27;20054;-69
2023/12/04 02:10:09;;;;;;;10.13;6.68;;;0.80;99.90;;;;;;5115724;27;20506;-69
2023/12/04 02:12:35;;;;;;;7.35;4.75;;;0.70;99.90;;;;;;5124381;27;20082;-69
2023/12/04 02:15:01;;;;;;;12.05;6.38;;;0.80;99.90;;;;;;5103012;27;20039;-70
2023/12/04 02:17:29;;;;;;;8.27;5.30;;;0.80;99.90;;;;;;5120708;27;20348;-70
2023/12/04 02:19:55;;;;;;;12.25;6.15;;;0.80;99.90;;;;;;5117400;27;20085;-70
2023/12/04 02:22:20;;;;;;;8.32;4.30;;;0.80;99.90;;;;;;5115858;27;20090;-69
2023/12/04 02:24:47;;;;;;;10.95;5.40;;;0.80;99.90;;;;;;5120800;27;20414;-69
2023/12/04 02:27:20;;;;;;;9.27;5.13;;;0.80;99.90;;;;;;5104137;27;20039;-69
2023/12/04 02:29:59;;;;;;;10.90;5.05;;;0.80;99.90;;;;;;5124851;27;20058;-70
2023/12/04 02:32:29;;;;;;;11.20;5.87;;;0.80;99.90;;;;;;5121031;27;20031;-70
2023/12/04 02:34:56;;;;;;;8.23;4.22;;;0.80;99.90;;;;;;5126143;27;20329;-69
2023/12/04 02:37:23;;;;;;;7.47;5.57;;;0.80;99.90;;;;;;5116228;27;20035;-70
2023/12/04 02:39:52;;;;;;;8.10;4.78;;;0.80;99.90;;;;;;5125678;27;20047;-70
2023/12/04 02:42:19;;;;;;;9.80;4.32;;;0.80;99.90;;;;;;5116148;27;20103;-71
2023/12/04 02:44:45;;;;;;;10.27;6.10;;;0.80;99.90;;;;;;5111614;27;20099;-70
2023/12/04 02:47:11;;;;;;;11.05;6.05;;;0.80;99.90;;;;;;5128825;27;20649;-70
2023/12/04 02:49:37;;;;;;;7.53;5.80;;;0.80;99.90;;;;;;5123533;27;20043;-70
2023/12/04 02:52:03;;;;;;;9.23;5.22;;;0.80;99.90;;;;;;5102776;27;20522;-73
2023/12/04 02:54:29;;;;;;;10.48;4.03;;;0.80;99.90;;;;;;5124219;27;20080;-72
2023/12/04 02:56:54;;;;;;;16.10;6.35;;;0.80;99.90;;;;;;5117937;27;20642;-70
2023/12/04 02:59:20;;;;;;;11.82;4.95;;;0.90;99.90;;;;;;5114085;27;20039;-70
2023/12/04 03:01:46;;;;;;;18.42;5.63;;;0.80;99.90;;;;;;5109433;27;20368;-70
2023/12/04 03:04:13;;;;;;;9.75;5.80;;;0.90;99.90;;;;;;5104250;27;20483;-69
2023/12/04 03:06:38;;;;;;;11.93;4.97;;;0.80;99.90;;;;;;5112281;27;20058;-69
2023/12/04 03:09:04;;;;;;;13.88;6.40;;;0.80;99.90;;;;;;5112692;27;20367;-68
2023/12/04 03:11:31;;;;;;;3.78;3.35;;;0.80;99.90;;;;;;5102267;27;20039;-69
2023/12/04 03:13:59;;;;;;;8.48;4.80;;;0.80;99.90;;;;;;5110038;27;20074;-69
2023/12/04 03:16:25;;;;;;;9.57;4.85;;;0.80;99.90;;;;;;5119688;27;20035;-69
2023/12/04 03:18:51;;;;;;;14.23;5.15;;;0.80;99.90;;;;;;5117651;27;20049;-68
2023/12/04 03:21:17;;;;;;;10.93;4.45;;;0.80;99.90;;;;;;5113481;27;20066;-69
2023/12/04 03:23:42;;;;;;;12.98;4.22;;;0.80;99.90;;;;;;5121212;27;20103;-69
2023/12/04 03:26:09;;;;;;;12.20;5.47;;;0.80;99.90;;;;;;5119011;27;20155;-69
2023/12/04 03:28:35;;;;;;;11.88;3.78;;;0.80;99.90;;;;;;5116882;27;20607;-70
2023/12/04 03:31:00;;;;;;;12.45;5.93;;;0.80;99.90;;;;;;5121713;27;20075;-69
2023/12/04 03:33:26;;;;;;;8.63;5.38;;;0.90;99.90;;;;;;5119210;27;20118;-69
2023/12/04 03:35:52;;;;;;;15.13;5.38;;;0.80;99.90;;;;;;5118234;27;20082;-69
2023/12/04 03:38:18;;;;;;;7.25;5.18;;;0.80;99.90;;;;;;5101058;27;20456;-70
2023/12/04 03:40:43;;;;;;;9.25;5.07;;;0.80;99.90;;;;;;5127696;27;20165;-70
2023/12/04 03:43:09;;;;;;;7.85;4.13;;;0.80;99.90;;;;;;5115476;27;20036;-69
2023/12/04 03:45:35;;;;;;;12.02;4.68;;;0.90;99.90;;;;;;5118402;27;20067;-69
2023/12/04 03:48:01;;;;;;;13.05;5.18;;;0.80;99.90;;;;;;5118063;27;20103;-69
2023/12/04 03:50:26;;;;;;;11.40;4.20;;;0.90;99.90;;;;;;5120480;27;20049;-70
2023/12/04 03:52:52;;;;;;;12.80;5.53;;;0.90;99.90;;;;;;5116584;27;20506;-69
2023/12/04 03:55:19;;;;;;;9.27;5.75;;;0.90;99.90;;;;;;5118997;27;20550;-70
2023/12/04 03:57:45;;;;;;;10.60;6.03;;;0.90;99.90;;;;;;5118194;27;20076;-70
2023/12/04 04:00:12;;;;;;;14.95;5.88;;;0.90;99.90;;;;;;5098440;27;20054;-69
2023/12/04 04:02:40;;;;;;;5.80;3.40;;;0.90;99.90;;;;;;5113656;27;20481;-69
2023/12/04 04:05:06;;;;;;;10.65;4.47;;;0.90;99.90;;;;;;5119605;27;20035;-69
2023/12/04 04:07:32;;;;;;;5.95;4.00;;;0.90;99.90;;;;;;5109311;27;20043;-70
2023/12/04 04:09:58;;;;;;;9.23;4.68;;;0.90;99.90;;;;;;5099002;27;20051;-70
2023/12/04 04:12:23;;;;;;;12.75;4.45;;;0.90;99.90;;;;;;5119901;27;20066;-70
2023/12/04 04:14:49;;;;;;;8.60;4.45;;;0.90;99.90;;;;;;5117341;27;20062;-70
2023/12/04 04:17:15;;;;;;;5.90;2.83;;;0.90;99.90;;;;;;5121303;27;20083;-69
2023/12/04 04:19:41;;;;;;;11.95;4.97;;;0.90;99.90;;;;;;5121277;27;20080;-70
2023/12/04 04:22:07;;;;;;;11.50;4.53;;;0.90;99.90;;;;;;5113150;27;20122;-70
2023/12/04 04:24:32;;;;;;;12.98;4.55;;;0.90;99.90;;;;;;5120625;27;20051;-69
2023/12/04 04:26:58;;;;;;;15.65;6.38;;;0.90;99.90;;;;;;5118139;27;20490;-70
2023/12/04 04:29:24;;;;;;;8.65;4.13;;;0.90;99.90;;;;;;5118774;27;20056;-69
2023/12/04 04:31:50;;;;;;;5.63;2.90;;;0.90;99.90;;;;;;5112581;27;20049;-69
2023/12/04 04:34:15;;;;;;;12.27;5.63;;;0.90;99.90;;;;;;5118915;27;20443;-69
2023/12/04 04:36:43;;;;;;;9.07;4.80;;;0.90;99.90;;;;;;5113112;27;20493;-70
2023/12/04 04:39:11;;;;;;;14.20;5.25;;;0.90;99.90;;;;;;5124531;27;20031;-70
2023/12/04 04:41:37;;;;;;;11.80;5.28;;;0.90;99.90;;;;;;5113163;27;20050;-70
2023/12/04 04:44:03;;;;;;;12.25;4.90;;;0.90;99.90;;;;;;5105172;27;20045;-70
2023/12/04 04:46:29;;;;;;;7.97;3.67;;;0.90;99.90;;;;;;5120134;27;20039;-70
2023/12/04 04:48:55;;;;;;;10.50;3.38;;;0.90;99.90;;;;;;5116849;27;20091;-69
2023/12/04 04:51:22;;;;;;;7.93;4.47;;;0.90;99.90;;;;;;5113673;27;20044;-70
2023/12/04 04:53:48;;;;;;;11.05;5.30;;;0.90;99.90;;;;;;5099093;27;20035;-70
2023/12/04 04:56:15;;;;;;;14.45;5.40;;;0.90;99.90;;;;;;5096150;27;20026;-70
2023/12/04 04:58:41;;;;;;;13.27;5.10;;;0.90;99.90;;;;;;5117308;27;20056;-71
2023/12/04 05:01:08;;;;;;;10.75;4.35;;;1.00;99.90;;;;;;5111499;27;20073;-70
2023/12/04 05:03:33;;;;;;;6.05;3.38;;;1.00;99.90;;;;;;5100185;28;20039;-71
2023/12/04 05:06:00;;;;;;;8.55;4.15;;;1.00;99.90;;;;;;5121280;27;20095;-70
2023/12/04 05:08:26;;;;;;;8.70;4.35;;;1.00;99.90;;;;;;5103438;27;20035;-69
2023/12/04 05:10:51;;;;;;;11.02;5.53;;;1.00;99.90;;;;;;5098578;27;20051;-70
2023/12/04 05:13:17;;;;;;;9.40;3.60;;;1.00;99.90;;;;;;5125025;28;20067;-71
2023/12/04 05:15:43;;;;;;;7.30;3.90;;;1.00;99.90;;;;;;5112666;28;20530;-70
2023/12/04 05:18:09;;;;;;;8.60;4.28;;;1.00;99.90;;;;;;5112373;28;20044;-70
2023/12/04 05:20:35;;;;;;;10.90;4.75;;;1.00;99.90;;;;;;5118373;27;20033;-70
2023/12/04 05:23:00;;;;;;;11.70;5.93;;;1.00;99.90;;;;;;5121345;27;20042;-71
2023/12/04 05:25:26;;;;;;;6.65;4.13;;;1.00;99.90;;;;;;5126802;27;20411;-70
2023/12/04 05:27:52;;;;;;;7.30;4.00;;;1.00;99.90;;;;;;5107150;27;20053;-70
2023/12/04 05:30:18;;;;;;;6.53;3.63;;;1.00;99.90;;;;;;5108274;27;20086;-70
2023/12/04 05:32:44;;;;;;;8.80;3.90;;;1.00;99.90;;;;;;5129524;27;20471;-70
2023/12/04 05:35:09;;;;;;;4.07;2.95;;;1.00;99.90;;;;;;5117808;27;20038;-70
2023/12/04 05:37:35;;;;;;;6.03;3.22;;;1.00;99.90;;;;;;5108172;27;20113;-70
2023/12/04 05:40:01;;;;;;;8.95;5.00;;;1.00;99.90;;;;;;5119211;27;20069;-70
2023/12/04 05:42:29;;;;;;;13.60;4.90;;;1.00;99.90;;;;;;5121582;27;20149;-70
2023/12/04 05:44:55;;;;;;;7.30;3.17;;;1.00;99.90;;;;;;5142526;27;20110;-70
2023/12/04 05:47:21;;;;;;;9.85;4.30;;;1.00;99.90;;;;;;5135941;27;20031;-70
2023/12/04 05:49:47;;;;;;;6.82;3.85;;;1.00;99.90;;;;;;5117122;27;20046;-70
2023/12/04 05:52:13;;;;;;;7.88;3.67;;;1.00;99.90;;;;;;5136879;27;20043;-70
2023/12/04 05:54:38;;;;;;;5.28;3.08;;;1.00;99.90;;;;;;5127716;27;20037;-70
2023/12/04 05:57:04;;;;;;;6.70;3.70;;;1.00;99.90;;;;;;5117932;27;20111;-71
2023/12/04 05:59:30;;;;;;;4.28;2.70;;;1.00;99.90;;;;;;5126628;27;20451;-72
2023/12/04 06:01:56;;;;;;;7.07;2.92;;;1.00;99.90;;;;;;5109370;27;20050;-71
2023/12/04 06:04:22;;;;;;;10.52;4.43;;;1.00;99.90;;;;;;5117761;27;20623;-71
2023/12/04 06:06:47;;;;;;;8.43;4.57;;;1.00;99.90;;;;;;5120058;27;20058;-71
2023/12/04 06:09:16;;;;;;;9.18;4.68;;;1.00;99.90;;;;;;5124690;27;20055;-70
2023/12/04 06:11:42;;;;;;;7.80;3.90;;;1.00;99.90;;;;;;5125244;27;20042;-70
2023/12/04 06:14:08;;;;;;;7.10;4.18;;;1.00;99.90;;;;;;5118715;27;20111;-71
2023/12/04 06:16:33;;;;;;;6.68;4.15;;;1.00;99.90;;;;;;5119253;27;20063;-71
2023/12/04 06:18:59;;;;;;;7.32;4.43;;;1.00;99.90;;;;;;5117803;27;20475;-72
2023/12/04 06:21:25;;;;;;;11.45;5.13;;;0.90;99.90;;;;;;5103205;27;20031;-70
2023/12/04 06:23:51;;;;;;;12.73;5.03;;;0.90;99.90;;;;;;5119139;27;20031;-72
2023/12/04 06:26:17;;;;;;;6.10;3.15;;;0.90;99.90;;;;;;5100861;27;20039;-71
2023/12/04 06:28:44;;;;;;;6.70;2.97;;;0.90;99.90;;;;;;5107968;27;20047;-72
2023/12/04 06:31:11;;;;;;;4.93;3.53;;;1.00;99.90;;;;;;5141164;27;20444;-71
2023/12/04 06:33:37;;;;;;;6.40;2.67;;;0.90;99.90;;;;;;5121204;27;20495;-72
2023/12/04 06:36:04;;;;;;;5.88;2.92;;;0.90;99.90;;;;;;5123485;27;20027;-70
2023/12/04 06:38:35;;;;;;;7.00;3.47;;;0.90;99.90;;;;;;5121003;27;20070;-71
2023/12/04 06:41:01;;;;;;;5.07;3.10;;;0.90;99.90;;;;;;5123957;27;20043;-72
2023/12/04 06:43:27;;;;;;;5.30;2.80;;;0.90;99.90;;;;;;5114153;27;20043;-73
2023/12/04 06:45:56;;;;;;;9.13;3.10;;;0.90;99.90;;;;;;5117346;27;20108;-72
2023/12/04 06:48:23;;;;;;;14.65;4.45;;;1.00;99.90;;;;;;5111839;27;20221;-76
2023/12/04 06:50:49;;;;;;;7.30;3.17;;;0.90;99.90;;;;;;5120194;27;20390;-71
2023/12/04 06:53:14;;;;;;;5.82;3.17;;;0.90;99.90;;;;;;5117658;27;20031;-71
2023/12/04 06:55:40;;;;;;;5.07;3.33;;;0.90;99.90;;;;;;5118261;27;20041;-71
2023/12/04 06:58:06;;;;;;;6.40;3.63;;;0.90;99.90;;;;;;5118038;27;20066;-73
2023/12/04 07:00:32;;;;;;;11.10;6.57;;;0.90;99.90;;;;;;5121518;27;20035;-72
2023/12/04 07:02:57;;;;;;;6.65;3.28;;;0.90;99.90;;;;;;5117301;27;20040;-72
2023/12/04 07:05:23;;;;;;;4.07;2.50;;;0.90;99.90;;;;;;5107921;27;20062;-71
2023/12/04 07:07:49;;;;;;;4.20;2.60;;;0.90;99.90;;;;;;5112228;27;20038;-72
2023/12/04 07:10:15;;;;;;;9.52;3.63;;;1.00;99.90;;;;;;5120410;27;20046;-74
2023/12/04 07:12:42;;;;;;;5.82;2.38;;;1.00;99.90;;;;;;5105067;27;20047;-71
2023/12/04 07:15:08;;;;;;;6.03;2.83;;;1.00;99.90;;;;;;5111109;27;20427;-70
2023/12/04 07:17:35;;;;;;;9.25;2.67;;;1.00;99.90;;;;;;5115913;27;20046;-71
2023/12/04 07:20:01;;;;;;;5.50;2.38;;;1.00;99.90;;;;;;5126429;27;20035;-71
2023/12/04 07:22:27;;;;;;;6.50;2.85;;;1.00;99.90;;;;;;5099803;27;20054;-70
2023/12/04 07:24:53;;;;;;;9.98;4.95;;;1.00;99.90;;;;;;5114918;27;20085;-71
2023/12/04 07:27:18;;;;;;;5.30;3.45;;;1.00;99.90;;;;;;5112510;27;20035;-71
2023/12/04 07:29:45;;;;;;;5.40;2.42;;;1.00;99.90;;;;;;5105151;27;20382;-71
2023/12/04 07:32:11;;;;;;;8.70;3.20;;;1.00;99.90;;;;;;5134415;27;20038;-70
2023/12/04 07:34:36;;;;;;;7.72;3.70;;;1.00;99.90;;;;;;5122946;27;20027;-71
2023/12/04 07:37:02;;;;;;;8.80;3.47;;;1.10;99.90;;;;;;5131984;27;20481;-72
2023/12/04 07:39:29;;;;;;;7.28;2.50;;;1.10;99.90;;;;;;5121023;27;20035;-71
2023/12/04 07:41:54;;;;;;;3.95;2.38;;;1.10;99.90;;;;;;5118780;27;20039;-71
2023/12/04 07:44:20;;;;;;;4.82;3.15;;;1.10;99.90;;;;;;5113686;27;20058;-69
2023/12/04 07:46:46;;;;;;;2.70;1.65;;;1.10;99.90;;;;;;5117281;27;20042;-70
2023/12/04 07:49:12;;;;;;;2.83;1.83;;;1.10;99.90;;;;;;5118999;27;20077;-72
2023/12/04 07:51:38;;;;;;;4.28;2.60;;;1.10;99.90;;;;;;5100698;27;20685;-72
2023/12/04 07:54:04;;;;;;;6.30;3.60;;;1.10;99.90;;;;;;5104423;27;20027;-71
2023/12/04 07:56:30;;;;;;;8.18;3.70;;;1.10;99.90;;;;;;5107158;27;20031;-71
2023/12/04 07:58:56;;;;;;;7.32;3.97;;;1.10;99.90;;;;;;5119135;27;20041;-72
2023/12/04 08:01:23;;;;;;;4.03;1.35;;;1.10;99.90;;;;;;5124815;27;20178;-71
2023/12/04 08:03:49;;;;;;;2.95;1.83;;;1.10;99.90;;;;;;5111760;27;20117;-71
2023/12/04 08:06:18;;;;;;;9.38;2.78;;;1.10;99.90;;;;;;5115295;27;20118;-72
2023/12/04 08:08:43;;;;;;;4.93;2.72;;;1.20;99.90;;;;;;5114745;27;20075;-72
2023/12/04 08:11:13;;;;;;;6.55;2.72;;;1.10;99.90;;;;;;5104350;27;20082;-72
2023/12/04 08:13:39;;;;;;;3.42;2.25;;;1.20;99.90;;;;;;5118277;27;20039;-72
2023/12/04 08:16:12;;;;;;;5.88;2.50;;;1.20;99.90;;;;;;5113174;27;20077;-72
2023/12/04 08:18:38;;;;;;;4.03;2.33;;;1.20;99.90;;;;;;5112471;27;20043;-75
2023/12/04 08:21:04;;;;;;;5.80;2.30;;;1.20;99.90;;;;;;5118643;27;20624;-72
2023/12/04 08:23:30;;;;;;;3.63;2.45;;;1.10;99.90;;;;;;5118131;27;20043;-71
2023/12/04 08:25:57;;;;;;;9.10;3.55;;;1.20;99.90;;;;;;5119808;27;20100;-71
2023/12/04 08:28:22;;;;;;;4.30;3.22;;;1.20;99.90;;;;;;5123498;27;20404;-72
2023/12/04 08:30:48;;;;;;;9.05;3.78;;;1.20;99.90;;;;;;5113109;27;20131;-74
2023/12/04 08:33:14;;;;;;;5.35;3.10;;;1.20;99.90;;;;;;5109774;27;20116;-73
2023/12/04 08:35:40;;;;;;;5.65;2.35;;;1.20;99.90;;;;;;5125412;27;20042;-73
2023/12/04 08:38:06;;;;;;;2.20;1.55;;;1.20;99.90;;;;;;5116809;27;20089;-72
2023/12/04 08:40:32;;;;;;;6.35;2.65;;;1.20;99.90;;;;;;5119204;27;20510;-72
2023/12/04 08:42:58;;;;;;;6.45;2.65;;;1.20;99.90;;;;;;5125197;27;20482;-73
2023/12/04 08:45:24;;;;;;;6.28;2.35;;;1.20;99.90;;;;;;5115937;27;20050;-73
2023/12/04 08:47:50;;;;;;;2.92;2.05;;;1.30;99.90;;;;;;5116658;27;20042;-73
2023/12/04 08:50:16;;;;;;;8.30;2.33;;;1.30;99.90;;;;;;5113291;27;20038;-72
2023/12/04 08:52:42;;;;;;;5.32;2.55;;;1.30;99.90;;;;;;5114005;27;20083;-73
2023/12/04 08:55:09;;;;;;;4.80;2.30;;;1.30;99.90;;;;;;5112938;28;20452;-74
2023/12/04 08:57:35;;;;;;;3.35;2.47;;;1.30;99.90;;;;;;5111773;27;20483;-73
2023/12/04 09:00:01;;;;;;;4.93;2.90;;;1.40;99.90;;;;;;5101311;27;20041;-73
2023/12/04 09:02:26;;;;;;;3.72;2.58;;;1.40;99.90;;;;;;5110960;28;20122;-72
2023/12/04 09:04:52;;;;;;;3.83;1.92;;;1.40;99.90;;;;;;5116646;28;20046;-72
2023/12/04 09:07:18;;;;;;;4.53;1.60;;;1.40;99.90;;;;;;5107037;28;20035;-76
2023/12/04 09:09:43;;;;;;;5.72;3.50;;;1.50;99.90;;;;;;5109049;28;20476;-72
2023/12/04 09:12:10;;;;;;;4.63;2.83;;;1.50;99.90;;;;;;5107872;28;20050;-71
2023/12/04 09:14:36;;;;;;;6.72;2.92;;;1.50;99.90;;;;;;5088683;28;20032;-72
2023/12/04 09:17:03;;;;;;;5.07;2.40;;;1.50;99.90;;;;;;5108804;28;20118;-72
2023/12/04 09:19:29;;;;;;;2.42;1.67;;;1.60;99.90;;;;;;5108495;28;20491;-73
2023/12/04 09:21:56;;;;;;;3.88;2.58;;;1.60;99.90;;;;;;5091284;28;20035;-73
2023/12/04 09:24:23;;;;;;;4.18;2.08;;;1.60;99.90;;;;;;5091385;28;20127;-72
2023/12/04 09:26:49;;;;;;;4.68;2.28;;;1.70;99.90;;;;;;5108353;28;20104;-72
2023/12/04 09:29:16;;;;;;;4.80;1.92;;;1.70;99.90;;;;;;5107891;28;20070;-72
2023/12/04 09:31:42;;;;;;;5.25;2.47;;;1.70;99.90;;;;;;5099501;28;20056;-72
2023/12/04 09:34:09;;;;;;;2.30;1.73;;;1.80;99.90;;;;;;5101245;28;20032;-73
2023/12/04 09:36:35;;;;;;;5.88;2.42;;;1.80;99.90;;;;;;5096447;28;20035;-72
2023/12/04 09:39:04;;;;;;;4.18;2.30;;;1.90;99.90;;;;;;5096501;28;20035;-73
2023/12/04 09:41:31;;;;;;;3.95;2.30;;;1.90;99.90;;;;;;5102249;28;20042;-74
2023/12/04 09:44:31;;;;;;;2.58;2.00;;;1.90;99.90;;;;;;5107273;28;20043;-74
2023/12/04 09:46:57;;;;;;;4.57;2.28;;;2.00;99.90;;;;;;5106855;28;20561;-72
2023/12/04 09:49:24;;;;;;;4.72;2.50;;;2.00;99.90;;;;;;5107693;28;20031;-72
2023/12/04 09:51:50;;;;;;;6.22;2.95;;;2.00;99.90;;;;;;5108382;28;20043;-74
2023/12/04 09:54:19;;;;;;;2.47;1.80;;;2.00;99.90;;;;;;5105766;28;20576;-72
2023/12/04 09:56:45;;;;;;;2.55;1.33;;;2.10;99.90;;;;;;5107720;28;20067;-72
2023/12/04 09:59:15;;;;;;;4.57;2.33;;;2.10;99.90;;;;;;5089661;28;20036;-73
2023/12/04 10:01:42;;;;;;;4.88;1.88;;;2.10;99.90;;;;;;5105266;28;20044;-73
2023/12/04 10:04:08;;;;;;;5.38;2.65;;;2.10;99.90;;;;;;5107544;28;20101;-74
2023/12/04 10:06:37;;;;;;;5.35;1.85;;;2.10;99.90;;;;;;5106839;28;20077;-73
2023/12/04 10:09:03;;;;;;;6.30;3.08;;;2.10;99.90;;;;;;5089872;27;20605;-75
2023/12/04 10:11:31;;;;;;;7.32;2.67;;;2.10;99.90;;;;;;5121048;27;20043;-72
2023/12/04 10:13:57;;;;;;;7.18;2.97;;;2.10;99.90;;;;;;5118590;27;20491;-73
2023/12/04 10:16:52;;;;;;;3.83;2.15;;;2.10;99.90;;;;;;5122094;27;20052;-71
2023/12/04 10:19:23;;;;;;;2.22;1.73;;;2.10;99.90;;;;;;5130374;27;20055;-72
2023/12/04 10:21:50;;;;;;;8.88;2.55;;;2.10;99.90;;;;;;5122211;27;20490;-74
2023/12/04 10:24:28;;;;;;;6.38;2.58;;;2.20;99.90;;;;;;5115328;27;20372;-73
2023/12/04 10:26:54;;;;;;;4.35;2.58;;;2.20;99.90;;;;;;5099663;27;20387;-74
2023/12/04 10:29:20;;;;;;;5.10;2.53;;;2.30;99.90;;;;;;5124555;27;20042;-73
2023/12/04 10:40:00;;;;;;;5.20;2.45;;;2.70;99.90;;;;;;5026990;28;20140;-73
2023/12/04 10:46:07;;;;;;;6.35;2.67;;;2.80;99.90;;;;;;5139598;27;20406;-73
2023/12/04 10:48:33;;;;;;;3.67;1.58;;;2.80;99.90;;;;;;5120835;27;20043;-75
2023/12/04 10:50:59;;;;;;;5.88;2.83;;;3.00;99.90;;;;;;5119357;27;20050;-73
2023/12/04 10:53:25;;;;;;;9.32;3.13;;;3.20;99.90;;;;;;5100331;27;20042;-74
2023/12/04 10:55:56;;;;;;;3.15;1.95;;;3.40;99.90;;;;;;5106135;27;20030;-73
2023/12/04 10:58:26;;;;;;;8.50;2.75;;;3.40;99.90;;;;;;5121734;27;20046;-74
2023/12/04 11:00:54;;;;;;;5.18;3.22;;;3.30;99.90;;;;;;5096094;27;20114;-73
2023/12/04 11:03:36;;;;;;;5.53;2.80;;;3.30;99.90;;;;;;5114821;27;20037;-73
2023/12/04 11:06:04;;;;;;;6.70;3.28;;;3.30;99.90;;;;;;5097888;27;20039;-73
2023/12/04 11:08:35;;;;;;;5.18;2.30;;;3.20;99.90;;;;;;5102650;27;20478;-70
2023/12/04 11:11:07;;;;;;;6.15;2.65;;;3.20;99.90;;;;;;5115449;27;20047;-71
2023/12/04 11:13:48;;;;;;;6.00;3.20;;;3.10;99.90;;;;;;5123159;27;20034;-71
2023/12/04 11:16:24;;;;;;;3.22;1.80;;;3.10;99.90;;;;;;5115032;27;20119;-74
2023/12/04 11:19:09;;;;;;;6.57;1.98;;;3.00;99.90;;;;;;5115733;27;20040;-72
2023/12/04 11:21:35;;;;;;;4.10;2.60;;;3.00;99.90;;;;;;5112469;27;20068;-73
2023/12/04 11:24:01;;;;;;;4.38;2.67;;;2.90;99.90;;;;;;5133819;27;20110;-72
2023/12/04 11:26:28;;;;;;;6.88;2.60;;;2.90;99.90;;;;;;5101599;27;20034;-72
2023/12/04 11:28:55;;;;;;;3.75;1.67;;;2.90;99.90;;;;;;5116309;27;20031;-73
2023/12/04 11:31:21;;;;;;;3.80;1.90;;;2.80;99.90;;;;;;5121154;27;20047;-72
2023/12/04 11:33:47;;;;;;;4.68;2.22;;;2.80;99.90;;;;;;5121930;27;20034;-73
2023/12/04 11:36:14;;;;;;;6.60;2.60;;;2.70;99.90;;;;;;5112468;27;20513;-73
2023/12/04 11:38:48;;;;;;;5.43;2.45;;;2.70;99.90;;;;;;5112471;27;20050;-72
2023/12/04 11:41:19;;;;;;;4.28;2.20;;;2.60;99.90;;;;;;5103101;27;20114;-71
2023/12/04 11:43:47;;;;;;;3.15;1.77;;;2.60;99.90;;;;;;5114047;27;20124;-72
2023/12/04 11:46:20;;;;;;;5.68;3.28;;;2.60;99.90;;;;;;5111166;27;20055;-72
2023/12/04 11:48:47;;;;;;;2.38;1.52;;;2.60;99.90;;;;;;5137567;27;20055;-74
2023/12/04 11:51:34;;;;;;;5.80;2.40;;;2.50;99.90;;;;;;5119232;27;20552;-72
2023/12/04 11:54:00;;;;;;;4.13;2.50;;;2.50;99.90;;;;;;5116535;27;20035;-71
2023/12/04 11:56:25;;;;;;;5.40;2.55;;;2.50;99.90;;;;;;5121023;27;20038;-74
2023/12/04 11:58:51;;;;;;;6.72;2.50;;;2.50;99.90;;;;;;5126466;27;20026;-72
2023/12/04 12:01:29;;;;;;;7.25;2.78;;;2.50;99.90;;;;;;5117601;27;20035;-73
2023/12/04 12:04:22;;;;;;;6.32;2.60;;;2.50;99.90;;;;;;5115954;27;20100;-71
2023/12/04 12:07:06;;;;;;;3.90;2.40;;;2.50;99.90;;;;;;5106484;27;20047;-70
2023/12/04 12:09:35;;;;;;;5.43;2.20;;;2.50;99.90;;;;;;5119487;27;20704;-72
2023/12/04 12:12:02;;;;;;;6.75;2.63;;;2.50;99.90;;;;;;5102701;27;20096;-72
2023/12/04 12:14:36;;;;;;;4.78;2.50;;;2.50;99.90;;;;;;5118220;27;20052;-74
2023/12/04 12:17:02;;;;;;;6.22;2.72;;;2.50;99.90;;;;;;5114862;27;20079;-72
2023/12/04 12:20:14;;;;;;;5.80;3.03;;;2.50;99.90;;;;;;5117219;27;20039;-74
2023/12/04 12:22:43;;;;;;;6.18;2.45;;;2.60;99.90;;;;;;5120644;27;20462;-74
2023/12/04 12:25:10;;;;;;;10.50;2.70;;;2.60;99.90;;;;;;5124666;27;20045;-72
2023/12/04 12:27:37;;;;;;;4.68;1.98;;;2.60;99.90;;;;;;5116312;27;20049;-70
2023/12/04 12:30:05;;;;;;;6.55;2.70;;;2.60;99.90;;;;;;5112962;27;20127;-73
2023/12/04 12:32:32;;;;;;;3.97;2.30;;;2.70;99.90;;;;;;5125542;27;20035;-70
2023/12/04 12:34:58;;;;;;;3.63;2.03;;;2.60;99.90;;;;;;5119709;27;20046;-72
2023/12/04 12:37:24;;;;;;;4.32;1.98;;;2.70;99.90;;;;;;5121829;27;20034;-73
2023/12/04 12:39:51;;;;;;;4.80;2.30;;;2.60;99.90;;;;;;5100495;27;20029;-75
2023/12/04 12:42:25;;;;;;;3.67;1.90;;;2.60;99.90;;;;;;5118436;27;20031;-73
2023/12/04 12:44:52;;;;;;;2.50;1.40;;;2.60;99.90;;;;;;5134642;27;20411;-74
2023/12/04 12:47:19;;;;;;;4.40;1.90;;;2.60;99.90;;;;;;5113922;27;20065;-70
2023/12/04 12:49:45;;;;;;;2.03;1.27;;;2.60;99.90;;;;;;5127493;27;20433;-73
2023/12/04 12:52:11;;;;;;;3.67;1.98;;;2.60;99.90;;;;;;5122676;27;20035;-74
2023/12/04 12:54:41;;;;;;;6.32;2.17;;;2.60;99.90;;;;;;5118377;27;20387;-72
2023/12/04 12:57:07;;;;;;;5.55;1.67;;;2.50;99.90;;;;;;5113791;27;20040;-73
2023/12/04 12:59:34;;;;;;;5.07;2.13;;;2.60;99.90;;;;;;5120553;27;20087;-73
2023/12/04 13:02:00;;;;;;;6.72;2.10;;;2.60;99.90;;;;;;5098157;28;20035;-73
2023/12/04 13:04:35;;;;;;;4.15;1.88;;;2.60;99.90;;;;;;5121133;27;20542;-74
2023/12/04 13:07:03;;;;;;;4.78;1.88;;;2.60;99.90;;;;;;5097478;28;20035;-72